createdAt,value
2022-08-22T00:01:19.966Z,2.53
2022-08-22T00:03:02.138Z,2.10
2022-08-22T00:03:10.965Z,2.90
2022-08-22T00:04:20.154Z,2.80
2022-08-22T00:06:47.915Z,2.73
2022-08-22T00:09:29.927Z,2.90
2022-08-22T00:12:09.918Z,2.77
2022-08-22T00:14:47.275Z,2.90
2022-08-22T00:17:55.375Z,2.87
2022-08-22T00:20:34.885Z,2.90
2022-08-22T00:23:19.433Z,2.47
2022-08-22T00:26:03.452Z,2.50
2022-08-22T00:28:53.413Z,2.45
2022-08-22T00:31:35.118Z,2.47
2022-08-22T00:34:05.061Z,2.47
2022-08-22T00:36:52.063Z,2.57
2022-08-22T00:39:28.786Z,2.83
2022-08-22T00:42:29.115Z,2.57
2022-08-22T00:45:35.715Z,2.67
2022-08-22T00:48:20.965Z,2.80
2022-08-22T00:51:24.793Z,2.70
2022-08-22T00:54:19.464Z,2.50
2022-08-22T00:57:08.684Z,2.47
2022-08-22T00:59:41.260Z,2.60
2022-08-22T01:02:41.902Z,2.80
2022-08-22T01:05:30.005Z,3.03
2022-08-22T01:07:59.871Z,3.17
2022-08-22T01:10:45.134Z,2.60
2022-08-22T01:13:43.527Z,2.70
2022-08-22T01:16:47.806Z,2.43
2022-08-22T01:19:43.144Z,2.60
2022-08-22T01:22:47.150Z,2.90
2022-08-22T01:25:26.434Z,2.83
2022-08-22T01:28:05.673Z,3.00
2022-08-22T01:30:35.824Z,2.57
2022-08-22T01:33:43.125Z,2.80
2022-08-22T01:36:12.656Z,3.00
2022-08-22T01:38:45.041Z,2.93
2022-08-22T01:41:29.901Z,2.50
2022-08-22T01:43:59.972Z,2.77
2022-08-22T01:46:45.480Z,2.70
2022-08-22T01:49:18.623Z,2.67
2022-08-22T01:51:55.533Z,2.93
2022-08-22T01:54:22.659Z,2.70
2022-08-22T01:56:49.912Z,3.10
2022-08-22T01:59:42.223Z,2.50
2022-08-22T02:02:24.054Z,2.70
2022-08-22T02:04:53.518Z,3.17
2022-08-22T02:07:31.884Z,2.40
2022-08-22T02:10:34.870Z,2.93
2022-08-22T02:13:42.775Z,2.83
2022-08-22T02:16:16.450Z,2.70
2022-08-22T02:19:14.189Z,2.60
2022-08-22T02:22:02.118Z,2.87
2022-08-22T02:24:51.032Z,2.90
2022-08-22T02:27:31.591Z,2.70
2022-08-22T02:30:12.778Z,3.00
2022-08-22T02:32:59.671Z,3.10
2022-08-22T02:35:52.124Z,3.00
2022-08-22T02:38:31.491Z,3.03
2022-08-22T02:41:16.429Z,3.70
2022-08-22T02:43:45.851Z,3.23
2022-08-22T02:46:47.006Z,3.33
2022-08-22T02:49:43.955Z,2.93
2022-08-22T02:52:42.999Z,3.47
2022-08-22T02:55:20.008Z,3.63
2022-08-22T02:58:05.442Z,3.37
2022-08-22T03:00:45.474Z,3.73
2022-08-22T03:03:24.148Z,3.40
2022-08-22T03:06:01.323Z,3.03
2022-08-22T03:08:33.061Z,3.20
2022-08-22T03:11:09.117Z,3.23
2022-08-22T03:13:51.236Z,3.27
2022-08-22T03:17:00.024Z,3.70
2022-08-22T03:19:48.794Z,3.00
2022-08-22T03:22:42.059Z,3.20
2022-08-22T03:25:36.077Z,3.73
2022-08-22T03:28:10.422Z,3.00
2022-08-22T03:30:43.291Z,3.90
2022-08-22T03:33:18.190Z,4.33
2022-08-22T03:35:44.982Z,3.23
2022-08-22T03:38:12.054Z,3.80
2022-08-22T03:41:06.023Z,3.77
2022-08-22T03:43:50.800Z,3.80
2022-08-22T03:46:39.107Z,3.20
2022-08-22T03:49:25.218Z,3.30
2022-08-22T03:51:54.924Z,3.60
2022-08-22T03:54:46.515Z,3.50
2022-08-22T03:57:22.462Z,3.83
2022-08-22T04:00:21.413Z,3.90
2022-08-22T04:03:00.079Z,3.50
2022-08-22T04:05:47.986Z,4.10
2022-08-22T04:08:52.211Z,4.13
2022-08-22T04:11:48.873Z,4.07
2022-08-22T04:14:37.246Z,3.87
2022-08-22T04:17:35.179Z,3.87
2022-08-22T04:20:16.603Z,3.60
2022-08-22T04:22:59.859Z,3.47
2022-08-22T04:25:47.538Z,3.50
2022-08-22T04:28:22.198Z,3.60
2022-08-22T04:30:49.264Z,3.77
2022-08-22T04:33:31.644Z,3.53
2022-08-22T04:36:15.750Z,3.20
2022-08-22T04:38:58.115Z,3.73
2022-08-22T04:42:11.143Z,3.73
2022-08-22T04:44:56.871Z,4.00
2022-08-22T04:47:38.566Z,4.07
2022-08-22T04:50:43.261Z,3.70
2022-08-22T04:53:47.788Z,3.87
2022-08-22T04:56:54.893Z,4.17
2022-08-22T04:59:24.287Z,3.40
2022-08-22T05:02:00.378Z,4.00
2022-08-22T05:04:31.885Z,3.83
2022-08-22T05:07:13.662Z,3.60
2022-08-22T05:09:47.435Z,3.90
2022-08-22T05:12:22.246Z,3.60
2022-08-22T05:15:01.334Z,3.60
2022-08-22T05:17:31.295Z,3.83
2022-08-22T05:20:03.993Z,3.60
2022-08-22T05:22:36.550Z,3.50
2022-08-22T05:25:09.516Z,3.50
2022-08-22T05:27:41.330Z,4.23
2022-08-22T05:30:13.487Z,3.43
2022-08-22T05:33:05.302Z,3.50
2022-08-22T05:35:39.248Z,3.47
2022-08-22T05:38:10.145Z,3.93
2022-08-22T05:40:37.910Z,3.97
2022-08-22T05:43:06.557Z,3.33
2022-08-22T05:45:35.366Z,3.57
2022-08-22T05:48:35.144Z,3.50
2022-08-22T05:51:21.404Z,3.75
2022-08-22T05:53:55.455Z,3.25
2022-08-22T05:56:35.273Z,3.23
2022-08-22T05:59:08.614Z,3.67
2022-08-22T06:01:51.958Z,3.80
2022-08-22T06:04:21.608Z,3.53
2022-08-22T06:06:55.215Z,3.78
2022-08-22T06:09:39.917Z,3.42
2022-08-22T06:12:21.700Z,3.37
2022-08-22T06:15:01.141Z,3.47
2022-08-22T06:17:34.718Z,3.60
2022-08-22T06:20:05.955Z,3.10
2022-08-22T06:22:37.968Z,3.22
2022-08-22T06:25:13.735Z,3.77
2022-08-22T06:27:41.673Z,3.17
2022-08-22T06:30:12.807Z,3.03
2022-08-22T06:32:59.204Z,3.47
2022-08-22T06:35:55.173Z,3.00
2022-08-22T06:38:29.563Z,3.40
2022-08-22T06:41:00.512Z,3.60
2022-08-22T06:43:38.579Z,3.00
2022-08-22T06:46:06.889Z,3.13
2022-08-22T06:48:35.556Z,3.13
2022-08-22T06:51:06.345Z,3.30
2022-08-22T06:53:37.074Z,3.30
2022-08-22T06:56:07.377Z,3.10
2022-08-22T06:58:42.710Z,3.65
2022-08-22T07:01:17.552Z,3.38
2022-08-22T07:03:53.922Z,3.40
2022-08-22T07:06:35.124Z,3.40
2022-08-22T07:09:07.077Z,3.45
2022-08-22T07:11:39.488Z,3.30
2022-08-22T07:14:11.233Z,3.78
2022-08-22T07:16:55.134Z,3.80
2022-08-22T07:19:26.841Z,3.30
2022-08-22T07:21:55.008Z,3.55
2022-08-22T07:24:26.684Z,3.60
2022-08-22T07:27:16.444Z,3.60
2022-08-22T07:29:46.306Z,2.92
2022-08-22T07:32:42.090Z,3.15
2022-08-22T07:35:17.805Z,2.97
2022-08-22T07:38:01.048Z,3.05
2022-08-22T07:40:40.491Z,3.03
2022-08-22T07:43:13.390Z,3.20
2022-08-22T07:46:19.253Z,3.00
2022-08-22T07:49:08.217Z,2.78
2022-08-22T07:51:45.414Z,2.78
2022-08-22T07:54:15.505Z,2.75
2022-08-22T07:56:56.491Z,2.88
2022-08-22T07:59:24.346Z,2.78
2022-08-22T08:01:54.550Z,2.90
2022-08-22T08:04:26.171Z,2.63
2022-08-22T08:06:57.589Z,3.03
2022-08-22T08:09:28.290Z,2.97
2022-08-22T08:11:55.363Z,2.70
2022-08-22T08:14:24.615Z,2.97
2022-08-22T08:17:05.991Z,2.80
2022-08-22T08:19:35.919Z,2.40
2022-08-22T08:22:04.728Z,2.90
2022-08-22T08:24:41.192Z,2.80
2022-08-22T08:27:33.997Z,3.03
2022-08-22T08:30:15.099Z,2.55
2022-08-22T08:32:44.363Z,2.40
2022-08-22T08:35:23.820Z,2.10
2022-08-22T08:38:00.682Z,1.85
2022-08-22T08:40:33.232Z,2.00
2022-08-22T08:43:31.223Z,1.95
2022-08-22T08:45:59.113Z,1.90
2022-08-22T08:48:54.918Z,2.30
2022-08-22T08:52:02.902Z,2.05
2022-08-22T08:54:55.702Z,1.80
2022-08-22T08:57:51.502Z,2.00
2022-08-22T09:00:29.063Z,1.88
2022-08-22T09:03:30.673Z,1.65
2022-08-22T09:06:16.764Z,2.08
2022-08-22T09:09:11.085Z,2.10
2022-08-22T09:12:23.472Z,1.80
2022-08-22T09:14:56.391Z,1.88
2022-08-22T09:17:33.938Z,2.20
2022-08-22T09:20:17.919Z,1.85
2022-08-22T09:23:04.796Z,2.00
2022-08-22T09:25:48.473Z,2.10
2022-08-22T09:28:31.362Z,2.05
2022-08-22T09:31:16.520Z,1.77
2022-08-22T09:33:53.061Z,2.50
2022-08-22T09:36:45.936Z,2.03
2022-08-22T09:39:26.036Z,2.17
2022-08-22T09:42:08.075Z,2.00
2022-08-22T09:44:51.568Z,2.17
2022-08-22T09:47:25.250Z,2.20
2022-08-22T09:50:29.645Z,2.35
2022-08-22T09:53:10.571Z,1.80
2022-08-22T09:55:46.656Z,1.75
2022-08-22T09:58:42.440Z,1.88
2022-08-22T10:01:22.283Z,1.90
2022-08-22T10:04:06.961Z,2.08
2022-08-22T10:06:45.321Z,2.10
2022-08-22T10:09:54.807Z,1.73
2022-08-22T10:13:02.874Z,2.33
2022-08-22T10:15:44.927Z,2.00
2022-08-22T10:18:44.049Z,1.90
2022-08-22T10:21:38.391Z,2.00
2022-08-22T10:24:25.231Z,2.05
2022-08-22T10:27:02.155Z,1.90
2022-08-22T10:29:51.239Z,2.05
2022-08-22T10:32:38.493Z,2.20
2022-08-22T10:35:25.590Z,2.40
2022-08-22T10:38:04.776Z,2.00
2022-08-22T10:40:43.998Z,2.20
2022-08-22T10:44:04.133Z,2.20
2022-08-22T10:46:39.030Z,2.30
2022-08-22T10:49:28.376Z,1.70
2022-08-22T10:52:06.522Z,2.30
2022-08-22T10:55:10.893Z,2.33
2022-08-22T10:57:37.544Z,2.10
2022-08-22T11:00:32.711Z,2.00
2022-08-22T11:03:15.169Z,2.25
2022-08-22T11:05:50.901Z,1.80
2022-08-22T11:08:20.254Z,2.13
2022-08-22T11:11:09.114Z,1.90
2022-08-22T11:13:53.810Z,2.05
2022-08-22T11:16:42.005Z,1.80
2022-08-22T11:19:14.667Z,1.80
2022-08-22T11:21:45.953Z,2.22
2022-08-22T11:24:35.557Z,2.45
2022-08-22T11:27:42.235Z,2.30
2022-08-22T11:30:18.478Z,1.85
2022-08-22T11:32:46.184Z,2.15
2022-08-22T11:35:25.964Z,2.00
2022-08-22T11:38:02.959Z,2.00
2022-08-22T11:40:59.416Z,1.70
2022-08-22T11:44:03.771Z,2.20
2022-08-22T11:46:36.659Z,1.90
2022-08-22T11:49:32.926Z,2.45
2022-08-22T11:52:06.234Z,2.40
2022-08-22T11:54:58.408Z,2.33
2022-08-22T11:57:35.342Z,2.20
2022-08-22T12:00:18.121Z,2.38
2022-08-22T12:03:24.981Z,2.35
2022-08-22T12:06:15.536Z,2.20
2022-08-22T12:09:02.450Z,2.20
2022-08-22T12:11:38.400Z,2.33
2022-08-22T12:14:15.755Z,2.47
2022-08-22T12:17:11.312Z,2.53
2022-08-22T12:20:15.025Z,2.30
2022-08-22T12:23:04.401Z,2.35
2022-08-22T12:25:37.489Z,2.22
2022-08-22T12:28:29.464Z,2.30
2022-08-22T12:31:33.867Z,2.20
2022-08-22T12:34:25.382Z,2.25
2022-08-22T12:37:20.972Z,2.35
2022-08-22T12:40:17.763Z,2.30
2022-08-22T12:42:46.096Z,2.30
2022-08-22T12:45:37.496Z,2.72
2022-08-22T12:48:34.638Z,2.47
2022-08-22T12:51:20.028Z,2.58
2022-08-22T12:54:15.483Z,2.70
2022-08-22T12:57:23.974Z,2.30
2022-08-22T12:59:58.042Z,2.20
2022-08-22T13:02:30.793Z,2.38
2022-08-22T13:05:03.194Z,2.55
2022-08-22T13:07:34.502Z,2.30
2022-08-22T13:10:35.251Z,2.17
2022-08-22T13:13:11.852Z,2.40
2022-08-22T13:15:39.722Z,2.40
2022-08-22T13:18:30.008Z,2.35
2022-08-22T13:21:01.019Z,2.75
2022-08-22T13:23:43.573Z,2.78
2022-08-22T13:26:34.423Z,2.30
2022-08-22T13:29:25.693Z,2.45
2022-08-22T13:32:00.381Z,2.67
2022-08-22T13:34:29.955Z,2.47
2022-08-22T13:37:03.288Z,2.03
2022-08-22T13:39:40.981Z,2.38
2022-08-22T13:42:20.380Z,1.98
2022-08-22T13:45:02.441Z,2.30
2022-08-22T13:47:32.506Z,2.10
2022-08-22T13:50:07.684Z,2.33
2022-08-22T13:52:55.228Z,2.50
2022-08-22T13:55:54.836Z,2.20
2022-08-22T13:58:40.267Z,2.30
2022-08-22T14:01:10.309Z,2.53
2022-08-22T14:03:52.126Z,2.22
2022-08-22T14:06:46.482Z,2.80
2022-08-22T14:09:40.178Z,2.13
2022-08-22T14:12:56.362Z,2.35
2022-08-22T14:15:45.476Z,2.35
2022-08-22T14:18:30.360Z,2.60
2022-08-22T14:21:27.722Z,2.58
2022-08-22T14:24:03.243Z,2.17
2022-08-22T14:26:37.366Z,2.42
2022-08-22T14:29:16.497Z,2.40
2022-08-22T14:32:06.258Z,2.30
2022-08-22T14:34:41.702Z,2.10
2022-08-22T14:37:23.613Z,2.03
2022-08-22T14:39:59.552Z,2.33
2022-08-22T14:42:45.870Z,2.50
2022-08-22T14:45:24.723Z,2.13
2022-08-22T14:48:30.556Z,2.20
2022-08-22T14:51:03.914Z,2.20
2022-08-22T14:53:34.722Z,2.20
2022-08-22T14:56:22.078Z,2.30
2022-08-22T14:59:04.562Z,2.53
2022-08-22T15:01:35.073Z,2.20
2022-08-22T15:04:08.348Z,2.10
2022-08-22T15:06:48.170Z,2.05
2022-08-22T15:09:33.009Z,2.60
2022-08-22T15:12:03.545Z,2.28
2022-08-22T15:14:45.567Z,2.10
2022-08-22T15:17:37.373Z,2.20
2022-08-22T15:20:28.748Z,2.47
2022-08-22T15:23:02.779Z,2.75
2022-08-22T15:25:40.987Z,4.15
2022-08-22T15:28:20.415Z,2.80
2022-08-22T15:30:58.605Z,2.88
2022-08-22T15:33:40.124Z,2.28
2022-08-22T15:36:20.713Z,1.95
2022-08-22T15:38:50.555Z,2.20
2022-08-22T15:41:37.245Z,2.90
2022-08-22T15:44:09.598Z,2.15
2022-08-22T15:46:58.836Z,3.20
2022-08-22T15:49:30.176Z,2.20
2022-08-22T15:52:00.882Z,3.80
2022-08-22T15:54:42.654Z,7.68
2022-08-22T15:57:14.136Z,2.90
2022-08-22T16:00:01.089Z,2.20
2022-08-22T16:02:34.927Z,2.28
2022-08-22T16:05:11.515Z,2.20
2022-08-22T16:08:08.464Z,2.53
2022-08-22T16:10:38.499Z,2.50
2022-08-22T16:13:26.410Z,2.33
2022-08-22T16:16:02.289Z,2.53
2022-08-22T16:18:49.222Z,2.45
2022-08-22T16:21:17.883Z,2.25
2022-08-22T16:23:53.823Z,2.15
2022-08-22T16:26:24.879Z,2.28
2022-08-22T16:28:58.925Z,2.20
2022-08-22T16:31:28.956Z,2.63
2022-08-22T16:34:32.896Z,2.20
2022-08-22T16:37:08.776Z,2.55
2022-08-22T16:40:01.474Z,2.10
2022-08-22T16:42:40.577Z,2.50
2022-08-22T16:45:31.634Z,2.17
2022-08-22T16:47:59.288Z,2.25
2022-08-22T16:50:34.166Z,2.40
2022-08-22T16:53:01.509Z,3.55
2022-08-22T16:55:31.265Z,8.32
2022-08-22T16:58:44.962Z,4.18
2022-08-22T17:01:31.282Z,5.00
2022-08-22T17:04:34.529Z,6.20
2022-08-22T17:07:01.615Z,3.33
2022-08-22T17:09:46.726Z,3.40
2022-08-22T17:12:13.919Z,3.30
2022-08-22T17:15:01.803Z,2.92
2022-08-22T17:17:29.334Z,3.13
2022-08-22T17:20:01.526Z,4.57
2022-08-22T17:23:13.478Z,3.55
2022-08-22T17:26:11.605Z,3.95
2022-08-22T17:29:16.158Z,14.50
2022-08-22T17:31:54.392Z,4.10
2022-08-22T17:34:37.655Z,3.17
2022-08-22T17:37:33.888Z,3.78
2022-08-22T17:40:36.645Z,3.10
2022-08-22T17:43:48.936Z,3.38
2022-08-22T17:46:55.625Z,3.53
2022-08-22T17:49:28.713Z,2.90
2022-08-22T17:51:55.877Z,3.00
2022-08-22T17:54:37.567Z,5.20
2022-08-22T17:57:28.813Z,3.08
2022-08-22T18:00:02.055Z,6.05
2022-08-22T18:02:34.072Z,4.32
2022-08-22T18:05:05.271Z,4.07
2022-08-22T18:07:41.187Z,12.80
2022-08-22T18:10:27.453Z,8.23
2022-08-22T18:13:06.208Z,12.77
2022-08-22T18:15:45.822Z,13.75
2022-08-22T18:18:30.477Z,11.98
2022-08-22T18:21:05.393Z,10.85
2022-08-22T18:23:49.190Z,11.80
2022-08-22T18:26:35.108Z,9.63
2022-08-22T18:29:11.422Z,10.98
2022-08-22T18:32:02.468Z,11.68
2022-08-22T18:34:45.796Z,11.60
2022-08-22T18:37:15.852Z,11.70
2022-08-22T18:39:47.436Z,10.68
2022-08-22T18:42:33.206Z,6.70
2022-08-22T18:44:59.892Z,5.80
2022-08-22T18:47:34.499Z,5.97
2022-08-22T18:50:24.496Z,4.03
2022-08-22T18:52:53.459Z,3.15
2022-08-22T18:56:04.048Z,2.75
2022-08-22T18:58:45.479Z,2.83
2022-08-22T19:01:42.031Z,3.40
2022-08-22T19:04:17.502Z,2.90
2022-08-22T19:06:44.620Z,6.88
2022-08-22T19:09:20.777Z,3.42
2022-08-22T19:11:47.900Z,5.05
2022-08-22T19:14:52.018Z,4.18
2022-08-22T19:17:33.723Z,4.40
2022-08-22T19:20:26.058Z,3.50
2022-08-22T19:23:32.753Z,12.10
2022-08-22T19:26:24.463Z,8.77
2022-08-22T19:28:54.712Z,4.22
2022-08-22T19:31:36.496Z,6.15
2022-08-22T19:34:32.527Z,5.90
2022-08-22T19:37:32.187Z,4.30
2022-08-22T19:40:05.236Z,7.45
2022-08-22T19:42:34.930Z,7.03
2022-08-22T19:45:04.894Z,5.97
2022-08-22T19:47:35.364Z,4.15
2022-08-22T19:50:16.999Z,4.65
2022-08-22T19:52:57.579Z,6.32
2022-08-22T19:55:27.706Z,6.60
2022-08-22T19:58:30.248Z,7.20
2022-08-22T20:01:28.816Z,8.88
2022-08-22T20:04:04.791Z,16.45
2022-08-22T20:06:53.293Z,8.93
2022-08-22T20:09:57.770Z,7.57
2022-08-22T20:12:55.027Z,7.90
2022-08-22T20:15:24.779Z,7.07
2022-08-22T20:20:58.970Z,6.97
2022-08-22T20:23:28.621Z,6.53
2022-08-22T20:25:57.084Z,6.38
2022-08-22T20:28:49.726Z,6.93
2022-08-22T20:31:26.932Z,6.40
2022-08-22T20:34:03.568Z,6.00
2022-08-22T20:36:30.949Z,5.22
2022-08-22T20:39:03.342Z,4.82
2022-08-22T20:41:31.699Z,5.55
2022-08-22T20:44:04.571Z,5.05
2022-08-22T20:46:47.674Z,5.95
2022-08-22T20:49:31.452Z,4.60
2022-08-22T20:52:20.133Z,5.22
2022-08-22T20:55:03.774Z,3.97
2022-08-22T20:57:30.911Z,4.93
2022-08-22T21:00:13.220Z,4.55
2022-08-22T21:02:51.182Z,18.20
2022-08-22T21:05:22.434Z,22.33
2022-08-22T21:08:13.417Z,14.10
2022-08-22T21:11:00.384Z,8.57
2022-08-22T21:13:34.735Z,8.77
2022-08-22T21:16:15.642Z,6.13
2022-08-22T21:18:47.080Z,5.95
2022-08-22T21:21:18.383Z,5.32
2022-08-22T21:24:00.995Z,5.93
2022-08-22T21:26:46.151Z,6.22
2022-08-22T21:29:13.222Z,6.40
2022-08-22T21:31:51.181Z,5.10
2022-08-22T21:34:24.439Z,5.57
2022-08-22T21:36:53.793Z,5.13
2022-08-22T21:39:30.722Z,5.32
2022-08-22T21:42:00.161Z,5.45
2022-08-22T21:44:31.539Z,5.57
2022-08-22T21:47:30.606Z,5.35
2022-08-22T21:50:06.057Z,5.10
2022-08-22T21:52:38.995Z,5.07
2022-08-22T21:55:34.845Z,4.72
2022-08-22T21:58:35.621Z,4.60
2022-08-22T22:01:31.669Z,5.57
2022-08-22T22:03:59.650Z,5.30
2022-08-22T22:06:27.207Z,4.65
2022-08-22T22:08:54.338Z,4.07
2022-08-22T22:11:21.113Z,4.70
2022-08-22T22:13:48.999Z,9.20
2022-08-22T22:16:22.115Z,4.97
2022-08-22T22:18:48.879Z,6.85
2022-08-22T22:21:16.882Z,4.75
2022-08-22T22:23:44.108Z,4.97
2022-08-22T22:26:11.700Z,5.43
2022-08-22T22:28:41.172Z,4.57
2022-08-22T22:31:08.863Z,5.00
2022-08-22T22:33:38.936Z,5.10
2022-08-22T22:36:18.352Z,4.72
2022-08-22T22:38:46.095Z,4.85
2022-08-22T22:41:13.220Z,4.00
2022-08-22T22:43:40.092Z,4.22
2022-08-22T22:46:06.780Z,5.55
2022-08-22T22:48:34.143Z,4.05
2022-08-22T22:51:08.999Z,4.72
2022-08-22T22:53:38.585Z,4.30
2022-08-22T22:56:09.714Z,4.10
2022-08-22T22:58:37.542Z,4.30
2022-08-22T23:01:17.167Z,4.18
2022-08-22T23:03:44.974Z,4.57
2022-08-22T23:06:17.183Z,3.95
2022-08-22T23:08:44.384Z,4.13
2022-08-22T23:11:15.991Z,4.30
2022-08-22T23:13:43.378Z,5.00
2022-08-22T23:16:17.433Z,4.50
2022-08-22T23:18:45.317Z,4.72
2022-08-22T23:21:19.647Z,4.32
2022-08-22T23:23:47.915Z,4.72
2022-08-22T23:26:15.771Z,4.38
2022-08-22T23:28:42.593Z,4.63
2022-08-22T23:31:10.736Z,4.60
2022-08-22T23:33:37.861Z,4.80
2022-08-22T23:36:19.081Z,4.82
2022-08-22T23:38:46.988Z,5.10
2022-08-22T23:41:15.152Z,4.45
2022-08-22T23:43:44.859Z,4.30
2022-08-22T23:46:13.085Z,4.40
2022-08-22T23:48:40.749Z,4.65
2022-08-22T23:51:09.028Z,4.38
2022-08-22T23:53:36.577Z,4.25
2022-08-22T23:56:27.902Z,4.50
2022-08-22T23:58:54.720Z,4.97
